Time;durP1;ratioP1;P1;durP2;ratioP2;P2;SDS_P1;SDS_P2;PMS_P1;PMS_P2;Temp;Humidity;BMP_temperature;BMP_pressure;BME280_temperature;BME280_humidity;BME280_pressure;Samples;Min_cycle;Max_cycle;Signal;HPM_P1;HPM_P2
2023/01/09 00:01:36;;;;;;;0.67;0.67;;;;;;;2.20;100.00;99987.50;5050981;28;20189;-58
2023/01/09 00:04:03;;;;;;;0.60;0.60;;;;;;;2.21;100.00;99984.16;5050977;28;20708;-59
2023/01/09 00:06:30;;;;;;;0.70;0.70;;;;;;;2.26;99.89;99986.75;5051032;28;20216;-59
2023/01/09 00:08:57;;;;;;;0.70;0.70;;;;;;;2.26;99.72;99982.53;5050982;28;20197;-58
2023/01/09 00:11:24;;;;;;;0.70;0.70;;;;;;;2.27;99.63;99985.91;5051459;28;20577;-58
2023/01/09 00:13:50;;;;;;;0.70;0.70;;;;;;;2.27;99.75;99984.22;5050902;28;20200;-58
2023/01/09 00:16:19;;;;;;;0.83;0.83;;;;;;;2.30;99.40;99988.47;5051229;28;20204;-59
2023/01/09 00:18:46;;;;;;;0.70;0.70;;;;;;;2.32;99.03;99981.75;5049822;28;20577;-58
2023/01/09 00:21:13;;;;;;;1.13;1.13;;;;;;;2.32;99.00;99976.69;5050830;28;20201;-59
2023/01/09 00:23:40;;;;;;;0.60;0.60;;;;;;;2.29;98.77;99982.59;5050904;28;20710;-58
2023/01/09 00:26:09;;;;;;;0.70;0.70;;;;;;;2.26;98.69;99982.53;5050783;28;20197;-58
2023/01/09 00:28:37;;;;;;;0.60;0.60;;;;;;;2.22;98.59;99980.81;5050816;28;20573;-59
2023/01/09 00:31:05;;;;;;;0.70;0.70;;;;;;;2.16;98.92;99977.34;5050347;28;20204;-58
2023/01/09 00:33:36;;;;;;;0.60;0.60;;;;;;;2.23;98.74;99979.13;5051112;28;20593;-58
2023/01/09 00:36:03;;;;;;;0.60;0.60;;;;;;;2.20;98.97;99976.56;5050834;28;20568;-58
2023/01/09 00:38:30;;;;;;;0.60;0.60;;;;;;;2.16;98.83;99977.34;5050643;28;20196;-58
2023/01/09 00:40:57;;;;;;;0.80;0.80;;;;;;;2.17;98.91;99981.56;5050667;28;20197;-59
2023/01/09 00:43:31;;;;;;;0.63;0.63;;;;;;;2.09;99.08;99966.28;5054841;28;20277;-58
2023/01/09 00:45:59;;;;;;;0.60;0.60;;;;;;;2.16;98.98;99974.81;5053666;28;20254;-58
2023/01/09 00:48:28;;;;;;;1.00;1.00;;;;;;;2.10;98.90;99971.34;5054786;28;20215;-58
2023/01/09 00:50:59;;;;;;;0.70;0.70;;;;;;;2.13;98.84;99962.13;5054537;28;20197;-58
2023/01/09 00:53:29;;;;;;;0.90;0.90;;;;;;;2.07;98.79;99961.22;5054583;28;20196;-58
2023/01/09 00:56:01;;;;;;;0.70;0.70;;;;;;;2.06;98.73;99963.72;5054526;28;20207;-58
2023/01/09 00:58:28;;;;;;;0.70;0.70;;;;;;;2.03;99.01;99963.69;5054605;28;20201;-58
2023/01/09 01:00:54;;;;;;;0.60;0.60;;;;;;;1.88;98.97;99946.63;5054416;28;20684;-59
2023/01/09 01:03:21;;;;;;;0.90;0.90;;;;;;;1.96;99.17;99961.91;5054300;28;20696;-58
2023/01/09 01:08:34;;;;;;;0.60;0.60;;;;;;;1.95;99.25;99958.53;5052933;28;20254;-59
2023/01/09 01:11:04;;;;;;;0.70;0.70;;;;;;;1.93;99.25;99945.03;5054059;28;20208;-58
2023/01/09 01:13:31;;;;;;;0.80;0.80;;;;;;;1.93;99.25;99947.56;5054148;28;20197;-59
2023/01/09 01:15:58;;;;;;;0.60;0.60;;;;;;;1.90;99.61;99952.56;5053959;28;20197;-59
2023/01/09 01:18:25;;;;;;;0.70;0.70;;;;;;;1.88;99.45;99946.63;5054030;28;20205;-59
2023/01/09 01:20:51;;;;;;;0.80;0.80;;;;;;;1.88;99.09;99940.72;5054246;28;20196;-58
2023/01/09 01:23:18;;;;;;;0.60;0.60;;;;;;;1.88;99.01;99941.56;5053904;28;20216;-59
2023/01/09 01:25:46;;;;;;;0.87;0.87;;;;;;;1.84;99.03;99927.19;5053988;28;20208;-58
2023/01/09 01:28:13;;;;;;;0.73;0.73;;;;;;;1.87;98.99;99924.72;5054203;28;20209;-58
2023/01/09 01:30:44;;;;;;;0.70;0.70;;;;;;;1.87;98.70;99926.41;5053945;28;20205;-59
2023/01/09 01:33:11;;;;;;;0.60;0.60;;;;;;;1.78;98.70;99911.13;5054047;28;20193;-58
2023/01/09 01:35:38;;;;;;;0.83;0.83;;;;;;;1.84;98.41;99926.38;5053882;28;20289;-59
2023/01/09 01:38:05;;;;;;;0.90;0.90;;;;;;;1.83;98.51;99920.47;5053561;28;20246;-58
2023/01/09 01:40:33;;;;;;;0.70;0.70;;;;;;;1.81;98.50;99911.97;5053660;28;20204;-58
2023/01/09 01:43:01;;;;;;;0.70;0.70;;;;;;;1.81;98.39;99916.22;5050987;28;20217;-59
2023/01/09 01:45:31;;;;;;;0.67;0.67;;;;;;;1.80;98.10;99907.78;5053714;28;20197;-58
2023/01/09 01:48:01;;;;;;;0.80;0.80;;;;;;;1.78;98.05;99906.88;5053696;28;20197;-59
2023/01/09 01:50:32;;;;;;;0.80;0.80;;;;;;;1.80;98.22;99910.31;5053569;28;20223;-58
2023/01/09 01:53:08;;;;;;;0.60;0.60;;;;;;;1.78;98.14;99901.00;5051976;28;20287;-58
2023/01/09 01:55:39;;;;;;;0.60;0.60;;;;;;;1.76;98.42;99898.44;5053269;28;20201;-58
2023/01/09 01:58:12;;;;;;;0.70;0.70;;;;;;;1.74;98.57;99894.22;5053368;28;20554;-58
2023/01/09 02:00:42;;;;;;;0.60;0.60;;;;;;;1.74;98.45;99900.13;5053677;28;20576;-58
2023/01/09 02:03:10;;;;;;;0.70;0.70;;;;;;;1.65;98.38;99882.28;5053300;28;20217;-59
2023/01/09 02:05:39;;;;;;;0.60;0.60;;;;;;;1.72;98.12;99891.66;5053109;28;20235;-58
2023/01/09 02:08:07;;;;;;;0.70;0.70;;;;;;;1.65;98.19;99884.00;5052824;28;20204;-58
2023/01/09 02:10:34;;;;;;;0.70;0.70;;;;;;;1.70;98.23;99888.28;5053028;28;20193;-58
2023/01/09 02:13:02;;;;;;;0.60;0.60;;;;;;;1.66;98.14;99886.53;5053309;28;20197;-59
2023/01/09 02:15:40;;;;;;;0.70;0.70;;;;;;;1.64;97.79;99883.13;5052983;28;20204;-58
2023/01/09 02:18:22;;;;;;;0.70;0.70;;;;;;;1.61;97.63;99880.56;5053021;28;20246;-59
2023/01/09 02:20:57;;;;;;;0.70;0.70;;;;;;;1.55;97.48;99877.97;5053138;28;20220;-58
2023/01/09 02:24:06;;;;;;;0.70;0.70;;;;;;;1.53;97.99;99879.59;5053037;28;20216;-59
2023/01/09 02:27:06;;;;;;;0.60;0.60;;;;;;;1.47;97.95;99875.31;5042192;28;20201;-58
2023/01/09 02:30:00;;;;;;;1.57;1.50;;;;;;;1.42;98.44;99886.22;5052748;28;20685;-59
2023/01/09 02:32:40;;;;;;;0.90;0.90;;;;;;;1.42;98.75;99871.03;5049597;28;20207;-59
2023/01/09 02:35:19;;;;;;;0.60;0.60;;;;;;;1.44;98.50;99879.47;5052969;28;20196;-59
2023/01/09 02:37:56;;;;;;;0.80;0.80;;;;;;;1.24;98.56;99850.56;5050645;28;20257;-58
2023/01/09 02:40:29;;;;;;;0.90;0.90;;;;;;;1.36;98.65;99879.38;5050530;28;20560;-59
2023/01/09 02:42:58;;;;;;;0.60;0.60;;;;;;;1.20;98.35;99851.34;5052570;28;20217;-58
2023/01/09 02:45:25;;;;;;;0.60;0.60;;;;;;;1.28;98.18;99875.03;5052573;28;20665;-58
2023/01/09 02:47:53;;;;;;;0.70;0.70;;;;;;;1.13;98.60;99858.00;5052435;28;20204;-58
2023/01/09 02:50:23;;;;;;;0.87;0.87;;;;;;;1.21;98.79;99865.66;5052377;28;20207;-59
2023/01/09 02:53:26;;;;;;;0.60;0.60;;;;;;;1.20;98.67;99863.97;5051721;28;20197;-58
2023/01/09 02:56:16;;;;;;;1.13;1.13;;;;;;;1.10;98.62;99857.09;5016890;28;20269;-58
2023/01/09 02:59:00;;;;;;;0.70;0.70;;;;;;;0.95;98.86;99838.38;5051633;28;20205;-59
2023/01/09 03:01:39;;;;;;;0.70;0.70;;;;;;;1.09;98.64;99865.50;5052217;28;20200;-58
2023/01/09 03:04:15;;;;;;;0.73;0.73;;;;;;;1.04;98.79;99850.28;5051536;28;20254;-59
2023/01/09 03:06:49;;;;;;;0.70;0.70;;;;;;;1.04;98.69;99861.22;5050556;28;20200;-59
2023/01/09 03:09:21;;;;;;;0.67;0.67;;;;;;;1.00;99.05;99861.19;5052106;28;20735;-58
2023/01/09 03:11:52;;;;;;;0.70;0.70;;;;;;;0.97;99.19;99856.91;5050702;28;20205;-59
2023/01/09 03:14:24;;;;;;;0.60;0.60;;;;;;;0.80;99.49;99837.28;5047554;28;20678;-58
2023/01/09 03:16:56;;;;;;;0.80;0.80;;;;;;;0.74;99.50;99830.47;5052047;28;20211;-58
2023/01/09 03:19:29;;;;;;;0.80;0.80;;;;;;;0.90;99.54;99862.72;5049940;28;20242;-58
2023/01/09 03:21:57;;;;;;;0.77;0.77;;;;;;;0.86;99.77;99860.94;5051663;28;20197;-59
2023/01/09 03:24:24;;;;;;;0.80;0.80;;;;;;;0.86;99.72;99858.44;5051939;28;20592;-58
2023/01/09 03:26:53;;;;;;;0.70;0.70;;;;;;;0.73;99.93;99826.25;5051502;28;20746;-58
2023/01/09 03:29:19;;;;;;;0.80;0.80;;;;;;;0.84;99.93;99844.09;5051665;28;20208;-59
2023/01/09 03:31:46;;;;;;;0.80;0.80;;;;;;;0.88;100.00;99851.72;5051655;28;20211;-58
2023/01/09 03:34:13;;;;;;;2.53;2.40;;;;;;;0.92;100.00;99861.03;5051831;28;20677;-58
2023/01/09 03:36:41;;;;;;;0.80;0.80;;;;;;;0.97;100.00;99856.91;5051540;28;20256;-59
2023/01/09 03:39:08;;;;;;;0.70;0.70;;;;;;;0.99;100.00;99852.75;5051494;28;20197;-58
2023/01/09 03:41:35;;;;;;;0.70;0.70;;;;;;;1.02;100.00;99849.41;5051507;28;20208;-59
2023/01/09 03:44:02;;;;;;;0.60;0.60;;;;;;;1.05;100.00;99850.31;5051278;28;20221;-58
2023/01/09 03:46:28;;;;;;;0.70;0.70;;;;;;;1.08;100.00;99849.50;5048668;28;20197;-58
2023/01/09 03:48:55;;;;;;;0.70;0.70;;;;;;;1.13;100.00;99847.06;5050946;28;20196;-59
2023/01/09 03:51:22;;;;;;;0.80;0.80;;;;;;;1.09;100.00;99841.09;5051236;28;20612;-58
2023/01/09 03:53:50;;;;;;;0.60;0.60;;;;;;;1.18;100.00;99846.28;5051036;28;20199;-58
2023/01/09 03:56:17;;;;;;;0.73;0.73;;;;;;;1.20;100.00;99854.72;5051016;28;20203;-58
2023/01/09 03:58:44;;;;;;;0.70;0.70;;;;;;;1.25;100.00;99857.31;5051255;28;20251;-58
2023/01/09 04:01:11;;;;;;;0.80;0.80;;;;;;;1.26;100.00;99856.50;5051346;28;20266;-58
2023/01/09 04:03:39;;;;;;;0.80;0.80;;;;;;;1.30;100.00;99858.22;5051092;28;20217;-59
2023/01/09 04:06:06;;;;;;;0.70;0.70;;;;;;;1.30;100.00;99850.66;5050648;28;20197;-59
2023/01/09 04:08:33;;;;;;;0.70;0.70;;;;;;;1.33;100.00;99853.22;5051065;28;20197;-60
2023/01/09 04:11:01;;;;;;;0.70;0.70;;;;;;;1.36;100.00;99854.09;5050953;28;20207;-59
2023/01/09 04:13:28;;;;;;;0.70;0.70;;;;;;;1.41;100.00;99861.75;5050682;28;20200;-58
2023/01/09 04:15:54;;;;;;;0.70;0.70;;;;;;;1.43;100.00;99857.56;5050303;28;20657;-59
2023/01/09 04:18:21;;;;;;;0.80;0.80;;;;;;;1.48;100.00;99855.97;5051059;28;20596;-59
2023/01/09 04:20:49;;;;;;;0.70;0.70;;;;;;;1.51;100.00;99866.13;5050795;28;20200;-59
2023/01/09 04:23:16;;;;;;;0.80;0.80;;;;;;;1.51;100.00;99876.22;5050278;28;20219;-58
2023/01/09 04:25:43;;;;;;;0.60;0.60;;;;;;;1.49;100.00;99880.38;5051163;28;20621;-58
2023/01/09 04:28:11;;;;;;;0.70;0.70;;;;;;;1.43;100.00;99882.81;5051028;28;20633;-58
2023/01/09 04:30:38;;;;;;;0.80;0.80;;;;;;;1.40;100.00;99877.72;5050757;28;20692;-58
2023/01/09 04:33:04;;;;;;;0.73;0.73;;;;;;;1.44;100.00;99869.38;5050672;28;20204;-59
2023/01/09 04:35:31;;;;;;;0.90;0.90;;;;;;;1.45;100.00;99866.03;5050651;28;20196;-59
2023/01/09 04:37:59;;;;;;;0.80;0.80;;;;;;;1.46;100.00;99878.66;5050797;28;20599;-58
2023/01/09 04:40:26;;;;;;;0.60;0.60;;;;;;;1.40;100.00;99860.91;5050780;28;20219;-59
2023/01/09 04:42:53;;;;;;;0.77;0.77;;;;;;;1.52;100.00;99873.69;5050841;28;20193;-58
2023/01/09 04:45:21;;;;;;;0.80;0.80;;;;;;;1.45;100.00;99856.78;5050364;28;20216;-58
2023/01/09 04:47:48;;;;;;;0.70;0.70;;;;;;;1.57;100.00;99872.09;5051376;28;20204;-58
2023/01/09 04:50:15;;;;;;;0.80;0.80;;;;;;;1.57;100.00;99872.09;5050757;28;20205;-59
2023/01/09 04:52:41;;;;;;;0.70;0.70;;;;;;;1.52;100.00;99852.63;5050486;28;20208;-58
2023/01/09 04:55:09;;;;;;;0.70;0.70;;;;;;;1.61;100.00;99860.34;5050833;28;20197;-58
2023/01/09 04:57:36;;;;;;;0.70;0.70;;;;;;;1.61;100.00;99862.88;5050507;28;20278;-58
2023/01/09 05:00:08;;;;;;;0.60;0.60;;;;;;;1.69;100.00;99870.53;5050721;28;20754;-59
2023/01/09 05:02:36;;;;;;;0.77;0.77;;;;;;;1.74;100.00;99868.94;5050493;28;20196;-58
2023/01/09 05:05:06;;;;;;;0.63;0.63;;;;;;;1.79;100.00;99873.22;5050434;28;20228;-59
2023/01/09 05:07:32;;;;;;;1.00;1.00;;;;;;;1.76;100.00;99847.91;5047902;28;20197;-58
2023/01/09 05:09:59;;;;;;;0.70;0.70;;;;;;;1.88;100.00;99868.25;5050461;28;20271;-58
2023/01/09 05:12:26;;;;;;;0.60;0.60;;;;;;;1.81;100.00;99866.50;5050772;28;20208;-59
2023/01/09 05:14:53;;;;;;;1.07;1.07;;;;;;;1.79;100.00;99865.63;5050337;28;20200;-58
2023/01/09 05:17:21;;;;;;;0.60;0.60;;;;;;;1.87;100.00;99880.91;5050481;28;20209;-58
2023/01/09 05:19:49;;;;;;;0.70;0.70;;;;;;;1.87;100.00;99875.84;5050060;28;20201;-59
2023/01/09 05:22:16;;;;;;;0.80;0.80;;;;;;;1.89;100.00;99882.63;5050524;28;20251;-58
2023/01/09 05:24:43;;;;;;;0.70;0.70;;;;;;;1.89;100.00;99880.09;5050449;28;20586;-58
2023/01/09 05:27:10;;;;;;;0.60;0.60;;;;;;;1.89;100.00;99885.13;5050737;28;20197;-59
2023/01/09 05:29:39;;;;;;;1.10;1.10;;;;;;;1.85;100.00;99885.06;5054313;28;20643;-59
2023/01/09 05:32:05;;;;;;;0.70;0.70;;;;;;;1.85;100.00;99883.41;5053666;28;20588;-58
2023/01/09 05:34:32;;;;;;;0.80;0.80;;;;;;;1.85;100.00;99873.28;5052907;28;20695;-58
2023/01/09 05:37:00;;;;;;;0.60;0.60;;;;;;;1.91;100.00;99878.41;5053658;28;20205;-58
2023/01/09 05:39:27;;;;;;;0.90;0.90;;;;;;;1.96;100.00;99876.81;5053902;28;20205;-59
2023/01/09 05:41:54;;;;;;;0.70;0.70;;;;;;;2.00;100.00;99880.22;5053741;28;20197;-58
2023/01/09 05:44:21;;;;;;;0.70;0.70;;;;;;;2.03;100.00;99883.63;5053913;28;20216;-58
2023/01/09 05:46:47;;;;;;;1.23;1.23;;;;;;;2.08;100.00;99878.63;5053325;28;20570;-58
2023/01/09 05:49:14;;;;;;;0.60;0.60;;;;;;;2.11;100.00;99866.84;5053840;28;20593;-58
2023/01/09 05:51:41;;;;;;;0.60;0.60;;;;;;;2.12;100.00;99867.72;5053723;28;20201;-58
2023/01/09 05:54:09;;;;;;;0.60;0.60;;;;;;;2.15;100.00;99872.81;5053296;28;20620;-58
2023/01/09 05:56:36;;;;;;;0.83;0.83;;;;;;;2.19;100.00;99878.75;5053331;28;20205;-59
2023/01/09 05:59:03;;;;;;;0.83;0.83;;;;;;;2.18;100.00;99874.50;5053281;28;20588;-58
2023/01/09 06:01:29;;;;;;;1.33;1.33;;;;;;;2.23;100.00;99883.84;5052911;28;20207;-58
2023/01/09 06:03:56;;;;;;;0.70;0.70;;;;;;;2.24;100.00;99882.16;5053179;28;20700;-59
2023/01/09 06:06:23;;;;;;;0.60;0.60;;;;;;;2.24;100.00;99877.09;5051604;28;20199;-59
2023/01/09 06:08:50;;;;;;;0.60;0.60;;;;;;;2.26;100.00;99880.50;5053200;28;20204;-58
2023/01/09 06:11:18;;;;;;;1.33;1.33;;;;;;;2.22;100.00;99869.50;5053049;28;20258;-58
2023/01/09 06:13:45;;;;;;;0.77;0.77;;;;;;;2.28;100.00;99878.84;5052821;28;20192;-58
2023/01/09 06:16:12;;;;;;;0.60;0.60;;;;;;;2.29;100.00;99880.53;5052654;28;20668;-59
2023/01/09 06:18:39;;;;;;;0.70;0.70;;;;;;;2.33;100.00;99878.03;5052847;28;20197;-58
2023/01/09 06:21:06;;;;;;;0.63;0.63;;;;;;;2.36;100.00;99873.00;5052205;28;20724;-59
2023/01/09 06:23:33;;;;;;;0.70;0.70;;;;;;;2.36;100.00;99867.13;5052370;28;20262;-58
2023/01/09 06:25:59;;;;;;;0.77;0.77;;;;;;;2.41;100.00;99883.19;5052432;28;20205;-59
2023/01/09 06:28:28;;;;;;;0.70;0.70;;;;;;;2.40;100.00;99869.69;5052255;28;20691;-59
2023/01/09 06:30:54;;;;;;;1.20;1.20;;;;;;;2.46;100.00;99864.69;5052096;28;20200;-59
2023/01/09 06:33:21;;;;;;;0.60;0.60;;;;;;;2.50;100.00;99863.88;5052504;28;20212;-58
2023/01/09 06:35:48;;;;;;;0.60;0.60;;;;;;;2.57;100.00;99862.25;5052630;28;20193;-59
2023/01/09 06:38:15;;;;;;;0.60;0.60;;;;;;;2.53;100.00;99865.59;5052553;28;20569;-59
2023/01/09 06:40:42;;;;;;;0.77;0.77;;;;;;;2.56;100.00;99861.41;5050796;28;20197;-59
2023/01/09 06:43:08;;;;;;;0.70;0.70;;;;;;;2.63;100.00;99857.25;5052575;28;20193;-59
2023/01/09 06:45:37;;;;;;;0.60;0.60;;;;;;;2.65;100.00;99868.22;5052221;28;20209;-59
2023/01/09 06:48:03;;;;;;;0.70;0.70;;;;;;;2.64;100.00;99869.94;5051292;28;20225;-59
2023/01/09 06:50:30;;;;;;;0.60;0.60;;;;;;;2.67;100.00;99868.25;5052343;28;20227;-58
2023/01/09 06:52:57;;;;;;;0.80;0.80;;;;;;;2.66;100.00;99867.41;5052247;28;20258;-58
2023/01/09 06:55:25;;;;;;;0.60;0.60;;;;;;;2.68;100.00;99865.75;5052012;28;20204;-58
2023/01/09 06:57:52;;;;;;;1.40;1.40;;;;;;;2.70;100.00;99861.53;5052733;28;20635;-59
2023/01/09 07:00:19;;;;;;;0.60;0.60;;;;;;;2.72;100.00;99871.66;5052119;28;20197;-59
2023/01/09 07:02:47;;;;;;;0.60;0.60;;;;;;;2.72;100.00;99877.56;5051475;28;20196;-59
2023/01/09 07:05:14;;;;;;;0.70;0.70;;;;;;;2.75;100.00;99872.53;5051636;28;20278;-59
2023/01/09 07:07:41;;;;;;;0.60;0.60;;;;;;;2.77;100.00;99870.03;5052127;28;20576;-59
2023/01/09 07:10:09;;;;;;;0.63;0.63;;;;;;;2.77;100.00;99868.34;5052072;28;20200;-58
2023/01/09 07:12:36;;;;;;;0.60;0.60;;;;;;;2.80;100.00;99870.91;5051850;28;20203;-58
2023/01/09 07:15:03;;;;;;;0.60;0.60;;;;;;;2.77;100.00;99860.75;5051601;28;20201;-58
2023/01/09 07:17:31;;;;;;;0.77;0.77;;;;;;;2.84;100.00;99867.59;5051765;28;20201;-58
2023/01/09 07:19:59;;;;;;;0.60;0.60;;;;;;;2.82;100.00;99859.09;5051529;28;20250;-58
2023/01/09 07:22:26;;;;;;;0.60;0.60;;;;;;;2.92;100.00;99862.56;5051578;28;20275;-59
2023/01/09 07:24:53;;;;;;;0.60;0.60;;;;;;;2.93;100.00;99857.53;5051450;28;20224;-59
2023/01/09 07:27:20;;;;;;;0.60;0.60;;;;;;;2.95;100.00;99855.84;5051452;28;20200;-59
2023/01/09 07:29:47;;;;;;;0.73;0.73;;;;;;;2.97;100.00;99864.28;5051625;28;20208;-59
2023/01/09 07:32:13;;;;;;;0.50;0.50;;;;;;;2.97;100.00;99854.16;5051744;28;20201;-59
2023/01/09 07:34:40;;;;;;;0.60;0.60;;;;;;;3.02;100.00;99849.97;5051492;28;20216;-59
2023/01/09 07:37:08;;;;;;;0.60;0.60;;;;;;;3.04;100.00;99845.75;5051294;28;20592;-58
2023/01/09 07:39:35;;;;;;;0.70;0.70;;;;;;;3.05;100.00;99847.47;5050522;28;20730;-58
2023/01/09 07:42:02;;;;;;;0.60;0.60;;;;;;;3.05;100.00;99842.41;5051552;28;20723;-59
2023/01/09 07:44:29;;;;;;;1.00;1.00;;;;;;;3.09;100.00;99843.28;5051242;28;20219;-59
2023/01/09 07:46:56;;;;;;;0.67;0.67;;;;;;;3.11;100.00;99844.13;5051363;28;20246;-59
2023/01/09 07:49:22;;;;;;;2.80;2.60;;;;;;;3.12;100.00;99839.09;5051308;28;20212;-59
2023/01/09 07:51:49;;;;;;;0.83;0.83;;;;;;;3.17;100.00;99834.88;5049865;28;20201;-59
2023/01/09 07:54:17;;;;;;;0.93;0.93;;;;;;;3.18;100.00;99839.13;5051232;28;20197;-59
2023/01/09 07:56:44;;;;;;;0.60;0.60;;;;;;;3.21;100.00;99842.50;5051251;28;20288;-59
2023/01/09 07:59:11;;;;;;;0.70;0.70;;;;;;;3.15;100.00;99828.97;5051525;28;20200;-58
2023/01/09 08:01:38;;;;;;;0.60;0.60;;;;;;;3.27;100.00;99845.06;5050989;28;20209;-59
2023/01/09 08:04:05;;;;;;;0.63;0.63;;;;;;;3.29;100.00;99846.78;5050809;28;20328;-59
2023/01/09 08:06:32;;;;;;;0.67;0.67;;;;;;;3.32;100.00;99840.88;5050850;28;20226;-59
2023/01/09 08:08:59;;;;;;;0.67;0.67;;;;;;;3.32;100.00;99841.75;5051190;28;20200;-59
2023/01/09 08:11:27;;;;;;;0.60;0.60;;;;;;;3.33;100.00;99833.28;5051083;28;20581;-59
2023/01/09 08:13:54;;;;;;;1.03;1.03;;;;;;;3.37;100.00;99837.53;5051035;28;20204;-58
2023/01/09 08:16:21;;;;;;;0.90;0.90;;;;;;;3.42;100.00;99837.56;5051315;28;20625;-59
2023/01/09 08:18:48;;;;;;;0.70;0.70;;;;;;;3.36;100.00;99822.34;5050736;28;20669;-59
2023/01/09 08:21:14;;;;;;;0.50;0.50;;;;;;;3.40;100.00;99819.81;5051003;28;20310;-59
2023/01/09 08:23:41;;;;;;;0.70;0.70;;;;;;;3.52;100.00;99831.72;5051201;28;20800;-59
2023/01/09 08:26:08;;;;;;;0.60;0.60;;;;;;;3.56;100.00;99835.94;5050757;28;20278;-59
2023/01/09 08:28:36;;;;;;;0.50;0.50;;;;;;;3.57;100.00;99833.44;5050938;28;20291;-59
2023/01/09 08:31:03;;;;;;;0.70;0.70;;;;;;;3.58;100.00;99837.66;5050898;28;20258;-59
2023/01/09 08:33:31;;;;;;;0.60;0.60;;;;;;;3.61;100.00;99825.00;5050985;28;20630;-59
2023/01/09 08:35:58;;;;;;;0.73;0.73;;;;;;;3.67;100.00;99829.25;5050851;28;20277;-60
2023/01/09 08:38:24;;;;;;;0.50;0.50;;;;;;;3.71;100.00;99825.88;5050869;28;20204;-59
2023/01/09 08:40:51;;;;;;;0.60;0.60;;;;;;;3.76;100.00;99829.28;5050809;28;20565;-59
2023/01/09 08:48:48;;;;;;;1.33;1.33;;;;;;;3.87;100.00;99822.56;5050477;28;20203;-59
2023/01/09 08:51:15;;;;;;;0.50;0.50;;;;;;;3.89;100.00;99825.94;5050647;28;20200;-59
2023/01/09 08:53:42;;;;;;;1.37;0.90;;;;;;;3.93;100.00;99822.59;5050728;28;20742;-59
2023/01/09 08:56:09;;;;;;;2.10;2.00;;;;;;;3.93;100.00;99812.44;5050519;28;20193;-59
2023/01/09 08:58:35;;;;;;;0.60;0.60;;;;;;;4.07;100.00;99825.16;5050957;28;20197;-59
2023/01/09 09:01:06;;;;;;;0.50;0.50;;;;;;;4.15;100.00;99824.34;5050586;28;20208;-58
2023/01/09 09:03:33;;;;;;;0.80;0.80;;;;;;;4.20;100.00;99816.75;5053073;28;20271;-58
2023/01/09 09:06:00;;;;;;;1.10;1.10;;;;;;;4.26;100.00;99818.44;5053314;28;20274;-59
2023/01/09 09:08:27;;;;;;;0.50;0.50;;;;;;;4.28;100.00;99815.06;5054476;28;20201;-59
2023/01/09 09:10:53;;;;;;;0.83;0.83;;;;;;;4.31;100.00;99816.75;5054270;28;20254;-59
2023/01/09 09:13:20;;;;;;;0.70;0.70;;;;;;;4.31;100.00;99815.06;5054071;28;20200;-59
2023/01/09 09:15:47;;;;;;;0.73;0.73;;;;;;;4.34;100.00;99820.13;5054204;28;20196;-59
2023/01/09 09:18:15;;;;;;;0.60;0.60;;;;;;;4.42;100.00;99808.31;5054205;28;20426;-59
2023/01/09 09:20:42;;;;;;;0.70;0.70;;;;;;;4.39;100.00;99810.00;5054121;28;20211;-58
2023/01/09 09:23:09;;;;;;;0.60;0.60;;;;;;;4.42;100.00;99802.38;5053985;28;20246;-59
2023/01/09 09:25:37;;;;;;;0.50;0.50;;;;;;;4.37;100.00;99798.97;5053762;28;20209;-59
2023/01/09 09:28:04;;;;;;;0.60;0.60;;;;;;;4.44;100.00;99800.69;5053611;28;20593;-58
2023/01/09 09:30:31;;;;;;;1.10;1.10;;;;;;;4.48;100.00;99798.16;5054110;28;20196;-58
2023/01/09 09:32:57;;;;;;;0.63;0.63;;;;;;;4.53;100.00;99795.59;5054146;28;20204;-59
2023/01/09 09:35:27;;;;;;;1.70;1.70;;;;;;;4.55;100.00;99793.94;5053777;28;20204;-59
2023/01/09 09:37:55;;;;;;;0.50;0.50;;;;;;;4.57;100.00;99793.09;5054308;28;20207;-59
2023/01/09 09:40:35;;;;;;;0.70;0.70;;;;;;;4.60;100.00;99794.78;5054034;28;20197;-59
2023/01/09 09:46:20;;;;;;;0.90;0.90;;;;;;;4.66;100.00;99790.53;5051135;28;20220;-59
2023/01/09 09:48:52;;;;;;;0.50;0.50;;;;;;;4.69;100.00;99797.31;5053978;28;20197;-59
2023/01/09 09:51:32;;;;;;;0.70;0.70;;;;;;;4.69;100.00;99782.91;5054221;28;20262;-59
2023/01/09 09:54:02;;;;;;;0.60;0.60;;;;;;;4.70;100.00;99791.38;5053663;28;20577;-59
2023/01/09 09:56:34;;;;;;;0.50;0.50;;;;;;;4.62;100.00;99777.84;5053118;28;20200;-59
2023/01/09 09:59:05;;;;;;;0.60;0.60;;;;;;;4.53;100.00;99770.22;5053826;28;20639;-59
2023/01/09 10:01:39;;;;;;;0.63;0.63;;;;;;;4.54;100.00;99762.63;5053366;28;20201;-59
2023/01/09 10:04:10;;;;;;;0.63;0.63;;;;;;;4.55;100.00;99769.41;5053342;28;20599;-59
2023/01/09 10:06:43;;;;;;;0.50;0.50;;;;;;;4.52;100.00;99763.47;5052520;28;20217;-58
2023/01/09 10:09:20;;;;;;;0.50;0.50;;;;;;;4.53;100.00;99765.13;5053681;28;20681;-58
2023/01/09 10:11:57;;;;;;;0.60;0.60;;;;;;;4.53;100.00;99762.59;5051931;28;20250;-59
2023/01/09 10:14:24;;;;;;;0.70;0.70;;;;;;;4.50;100.00;99760.06;5052032;28;20200;-59
2023/01/09 10:17:06;;;;;;;0.60;0.60;;;;;;;4.49;100.00;99763.47;5053420;28;20576;-59
2023/01/09 10:19:50;;;;;;;0.83;0.83;;;;;;;4.48;100.00;99756.69;5052340;28;20200;-59
2023/01/09 10:22:30;;;;;;;0.70;0.70;;;;;;;4.47;100.00;99753.31;5053482;28;20641;-59
2023/01/09 10:25:22;;;;;;;0.50;0.50;;;;;;;4.51;100.00;99744.00;5052984;28;20204;-59
2023/01/09 10:28:07;;;;;;;0.90;0.90;;;;;;;4.48;100.00;99734.69;5052435;28;20226;-59
2023/01/09 10:30:41;;;;;;;0.67;0.67;;;;;;;4.49;100.00;99733.00;5051839;28;20680;-59
2023/01/09 10:33:26;;;;;;;0.77;0.77;;;;;;;4.51;100.00;99737.22;5052876;28;20584;-58
2023/01/09 10:36:21;;;;;;;0.50;0.50;;;;;;;4.52;100.00;99727.94;5052560;28;20196;-59
2023/01/09 10:38:54;;;;;;;0.60;0.60;;;;;;;4.46;100.00;99716.06;5052752;28;20270;-59
2023/01/09 10:41:24;;;;;;;0.60;0.60;;;;;;;4.62;100.00;99722.00;5052749;28;20669;-59
2023/01/09 10:43:58;;;;;;;0.50;0.50;;;;;;;4.63;100.00;99716.91;5051900;28;20627;-59
2023/01/09 10:46:28;;;;;;;1.80;1.37;;;;;;;4.63;100.00;99721.13;5052567;28;20243;-59
2023/01/09 10:48:59;;;;;;;0.70;0.70;;;;;;;4.68;100.00;99719.44;5052606;28;20728;-59
2023/01/09 10:51:32;;;;;;;0.60;0.60;;;;;;;4.70;100.00;99708.44;5052798;28;20258;-60
2023/01/09 10:54:00;;;;;;;0.50;0.50;;;;;;;4.76;100.00;99707.56;5052039;28;20207;-59
2023/01/09 10:56:28;;;;;;;1.27;1.27;;;;;;;4.75;100.00;99695.72;5052217;28;20197;-59
2023/01/09 10:58:56;;;;;;;0.50;0.50;;;;;;;4.83;100.00;99709.25;5052861;28;20567;-59
2023/01/09 11:01:27;;;;;;;0.60;0.60;;;;;;;4.84;100.00;99700.78;5052481;28;20197;-59
2023/01/09 11:03:57;;;;;;;0.60;0.60;;;;;;;4.94;100.00;99699.94;5052098;28;20692;-59
2023/01/09 11:06:30;;;;;;;0.80;0.80;;;;;;;4.93;100.00;99700.75;5051937;28;20270;-59
2023/01/09 11:09:01;;;;;;;0.70;0.70;;;;;;;4.97;100.00;99702.47;5052352;28;20557;-59
2023/01/09 11:11:36;;;;;;;3.33;2.23;;;;;;;5.00;100.00;99699.91;5052057;28;20208;-59
2023/01/09 11:14:14;;;;;;;0.97;0.97;;;;;;;5.05;100.00;99700.72;5052355;28;20283;-59
2023/01/09 11:16:51;;;;;;;1.47;1.47;;;;;;;5.06;100.00;99697.34;5050377;28;20238;-59
2023/01/09 11:19:18;;;;;;;0.57;0.57;;;;;;;5.11;100.00;99685.44;5051373;28;20204;-59
2023/01/09 11:21:45;;;;;;;0.77;0.73;;;;;;;5.14;100.00;99677.81;5051855;28;20197;-59
2023/01/09 11:24:30;;;;;;;0.60;0.60;;;;;;;5.16;100.00;99672.75;5051710;28;20203;-59
2023/01/09 11:27:22;;;;;;;1.03;0.80;;;;;;;5.18;100.00;99682.03;5050520;28;20217;-59
2023/01/09 11:30:07;;;;;;;0.70;0.70;;;;;;;5.21;100.00;99665.94;5050432;28;20236;-59
2023/01/09 11:32:34;;;;;;;0.57;0.57;;;;;;;5.20;100.00;99660.00;5051351;28;20643;-58
2023/01/09 11:35:04;;;;;;;0.60;0.60;;;;;;;5.20;100.00;99641.38;5051903;28;20623;-59
2023/01/09 11:37:32;;;;;;;0.50;0.50;;;;;;;5.28;100.00;99650.66;5051621;28;20679;-59
2023/01/09 11:40:01;;;;;;;0.80;0.80;;;;;;;5.28;100.00;99635.41;5051661;28;20210;-59
2023/01/09 11:45:16;;;;;;;0.70;0.70;;;;;;;5.43;100.00;99631.09;5051309;28;20208;-59
2023/01/09 11:47:43;;;;;;;0.50;0.50;;;;;;;5.46;100.00;99620.91;5051584;28;20295;-59
2023/01/09 11:50:19;;;;;;;0.70;0.70;;;;;;;5.53;100.00;99620.00;5051557;28;20205;-59
2023/01/09 11:52:46;;;;;;;1.83;1.83;;;;;;;5.59;100.00;99618.25;5048133;28;20199;-58
2023/01/09 11:55:19;;;;;;;0.77;0.77;;;;;;;5.55;100.00;99610.69;5051550;28;20200;-59
2023/01/09 11:57:49;;;;;;;5.37;2.20;;;;;;;5.53;100.00;99607.28;5050092;28;20287;-61
2023/01/09 12:00:25;;;;;;;0.80;0.80;;;;;;;5.66;100.00;99588.53;5046898;28;20823;-62
2023/01/09 12:03:08;;;;;;;0.73;0.73;;;;;;;5.91;100.00;99597.72;5049304;28;20469;-62